sensor_id;sensor_type;location;lat;lon;timestamp;P1;durP1;ratioP1;P2;durP2;ratioP2
53525;SDS011;40551;50.478;19.378;2023-01-10T00:01:40;60.60;;;50.70;;
53525;SDS011;40551;50.478;19.378;2023-01-10T00:04:08;56.70;;;47.70;;
53525;SDS011;40551;50.478;19.378;2023-01-10T00:06:37;46.60;;;41.10;;
53525;SDS011;40551;50.478;19.378;2023-01-10T00:09:05;47.50;;;40.90;;
53525;SDS011;40551;50.478;19.378;2023-01-10T00:11:33;38.90;;;34.90;;
53525;SDS011;40551;50.478;19.378;2023-01-10T00:14:20;40.70;;;32.10;;
53525;SDS011;40551;50.478;19.378;2023-01-10T00:16:48;33.70;;;30.20;;
53525;SDS011;40551;50.478;19.378;2023-01-10T00:19:16;30.50;;;26.20;;
53525;SDS011;40551;50.478;19.378;2023-01-10T00:21:44;25.80;;;23.30;;
53525;SDS011;40551;50.478;19.378;2023-01-10T00:24:13;25.10;;;21.80;;
53525;SDS011;40551;50.478;19.378;2023-01-10T00:26:45;26.70;;;23.60;;
53525;SDS011;40551;50.478;19.378;2023-01-10T00:29:17;25.10;;;22.60;;
53525;SDS011;40551;50.478;19.378;2023-01-10T00:31:46;29.60;;;23.40;;
53525;SDS011;40551;50.478;19.378;2023-01-10T00:34:15;25.90;;;23.20;;
53525;SDS011;40551;50.478;19.378;2023-01-10T00:36:43;27.20;;;24.40;;
53525;SDS011;40551;50.478;19.378;2023-01-10T00:39:13;25.80;;;23.20;;
53525;SDS011;40551;50.478;19.378;2023-01-10T00:41:42;26.60;;;24.00;;
53525;SDS011;40551;50.478;19.378;2023-01-10T00:44:28;26.00;;;23.40;;
53525;SDS011;40551;50.478;19.378;2023-01-10T00:46:56;27.10;;;24.30;;
53525;SDS011;40551;50.478;19.378;2023-01-10T00:49:25;26.40;;;23.80;;
53525;SDS011;40551;50.478;19.378;2023-01-10T00:51:53;28.80;;;25.70;;
53525;SDS011;40551;50.478;19.378;2023-01-10T00:54:24;28.00;;;25.10;;
53525;SDS011;40551;50.478;19.378;2023-01-10T00:56:52;29.40;;;26.40;;
53525;SDS011;40551;50.478;19.378;2023-01-10T00:59:21;29.40;;;26.50;;
53525;SDS011;40551;50.478;19.378;2023-01-10T01:01:49;30.30;;;27.10;;
53525;SDS011;40551;50.478;19.378;2023-01-10T01:04:18;30.60;;;27.30;;
53525;SDS011;40551;50.478;19.378;2023-01-10T01:06:47;32.80;;;29.30;;
53525;SDS011;40551;50.478;19.378;2023-01-10T01:09:16;33.10;;;29.60;;
53525;SDS011;40551;50.478;19.378;2023-01-10T01:11:44;31.50;;;28.20;;
53525;SDS011;40551;50.478;19.378;2023-01-10T01:14:13;31.30;;;28.30;;
53525;SDS011;40551;50.478;19.378;2023-01-10T01:16:41;30.90;;;27.70;;
53525;SDS011;40551;50.478;19.378;2023-01-10T01:19:09;29.70;;;26.60;;
53525;SDS011;40551;50.478;19.378;2023-01-10T01:21:38;32.30;;;28.90;;
53525;SDS011;40551;50.478;19.378;2023-01-10T01:24:06;31.80;;;28.40;;
53525;SDS011;40551;50.478;19.378;2023-01-10T01:26:36;29.00;;;26.10;;
53525;SDS011;40551;50.478;19.378;2023-01-10T01:29:05;29.00;;;26.10;;
53525;SDS011;40551;50.478;19.378;2023-01-10T01:31:33;32.20;;;27.90;;
53525;SDS011;40551;50.478;19.378;2023-01-10T01:34:02;30.10;;;27.00;;
53525;SDS011;40551;50.478;19.378;2023-01-10T01:36:30;31.30;;;28.30;;
53525;SDS011;40551;50.478;19.378;2023-01-10T01:38:58;30.40;;;27.00;;
53525;SDS011;40551;50.478;19.378;2023-01-10T01:41:26;29.90;;;26.90;;
53525;SDS011;40551;50.478;19.378;2023-01-10T01:44:14;32.50;;;29.20;;
53525;SDS011;40551;50.478;19.378;2023-01-10T01:46:44;31.70;;;28.60;;
53525;SDS011;40551;50.478;19.378;2023-01-10T01:49:17;31.50;;;28.10;;
53525;SDS011;40551;50.478;19.378;2023-01-10T01:51:52;34.20;;;30.60;;
53525;SDS011;40551;50.478;19.378;2023-01-10T01:54:25;33.60;;;30.30;;
53525;SDS011;40551;50.478;19.378;2023-01-10T01:56:57;33.20;;;29.50;;
53525;SDS011;40551;50.478;19.378;2023-01-10T01:59:30;34.40;;;30.90;;
53525;SDS011;40551;50.478;19.378;2023-01-10T02:02:02;34.20;;;30.60;;
53525;SDS011;40551;50.478;19.378;2023-01-10T02:04:36;33.50;;;30.00;;
53525;SDS011;40551;50.478;19.378;2023-01-10T02:07:08;33.60;;;30.20;;
53525;SDS011;40551;50.478;19.378;2023-01-10T02:09:39;36.30;;;32.60;;
53525;SDS011;40551;50.478;19.378;2023-01-10T02:12:11;33.00;;;29.70;;
53525;SDS011;40551;50.478;19.378;2023-01-10T02:14:41;34.80;;;31.40;;
53525;SDS011;40551;50.478;19.378;2023-01-10T02:17:11;34.30;;;30.70;;
53525;SDS011;40551;50.478;19.378;2023-01-10T02:19:42;33.60;;;30.20;;
53525;SDS011;40551;50.478;19.378;2023-01-10T02:28:42;35.60;;;32.00;;
53525;SDS011;40551;50.478;19.378;2023-01-10T02:31:48;36.00;;;32.50;;
53525;SDS011;40551;50.478;19.378;2023-01-10T02:34:25;35.00;;;31.60;;
53525;SDS011;40551;50.478;19.378;2023-01-10T02:37:00;35.90;;;32.40;;
53525;SDS011;40551;50.478;19.378;2023-01-10T02:39:38;35.50;;;31.80;;
53525;SDS011;40551;50.478;19.378;2023-01-10T02:42:17;37.60;;;34.00;;
53525;SDS011;40551;50.478;19.378;2023-01-10T02:44:52;35.90;;;32.30;;
53525;SDS011;40551;50.478;19.378;2023-01-10T02:47:24;37.60;;;34.00;;
53525;SDS011;40551;50.478;19.378;2023-01-10T02:49:53;37.10;;;33.30;;
53525;SDS011;40551;50.478;19.378;2023-01-10T02:52:22;35.30;;;31.50;;
53525;SDS011;40551;50.478;19.378;2023-01-10T02:54:53;36.20;;;32.50;;
53525;SDS011;40551;50.478;19.378;2023-01-10T02:57:29;39.20;;;35.20;;
53525;SDS011;40551;50.478;19.378;2023-01-10T03:00:14;35.80;;;32.30;;
53525;SDS011;40551;50.478;19.378;2023-01-10T03:02:59;36.30;;;32.60;;
53525;SDS011;40551;50.478;19.378;2023-01-10T03:05:43;36.30;;;32.90;;
53525;SDS011;40551;50.478;19.378;2023-01-10T03:08:23;39.00;;;33.60;;
53525;SDS011;40551;50.478;19.378;2023-01-10T03:10:58;36.60;;;32.80;;
53525;SDS011;40551;50.478;19.378;2023-01-10T03:13:30;37.20;;;33.50;;
53525;SDS011;40551;50.478;19.378;2023-01-10T03:16:07;35.00;;;31.50;;
53525;SDS011;40551;50.478;19.378;2023-01-10T03:18:40;49.60;;;44.10;;
53525;SDS011;40551;50.478;19.378;2023-01-10T03:21:13;41.50;;;37.00;;
53525;SDS011;40551;50.478;19.378;2023-01-10T03:26:13;104.60;;;74.00;;
53525;SDS011;40551;50.478;19.378;2023-01-10T03:28:47;30.60;;;27.50;;
53525;SDS011;40551;50.478;19.378;2023-01-10T03:31:20;69.30;;;63.60;;
53525;SDS011;40551;50.478;19.378;2023-01-10T03:33:54;37.00;;;33.50;;
53525;SDS011;40551;50.478;19.378;2023-01-10T03:36:25;34.20;;;31.00;;
53525;SDS011;40551;50.478;19.378;2023-01-10T03:38:59;21.00;;;18.50;;
53525;SDS011;40551;50.478;19.378;2023-01-10T03:41:35;21.90;;;19.20;;
53525;SDS011;40551;50.478;19.378;2023-01-10T03:44:11;19.20;;;16.90;;
53525;SDS011;40551;50.478;19.378;2023-01-10T03:47:04;23.00;;;20.70;;
53525;SDS011;40551;50.478;19.378;2023-01-10T03:49:37;22.40;;;18.50;;
53525;SDS011;40551;50.478;19.378;2023-01-10T03:52:08;23.30;;;19.40;;
53525;SDS011;40551;50.478;19.378;2023-01-10T03:54:41;25.50;;;22.80;;
53525;SDS011;40551;50.478;19.378;2023-01-10T03:57:14;18.60;;;16.30;;
53525;SDS011;40551;50.478;19.378;2023-01-10T03:59:44;16.20;;;12.50;;
53525;SDS011;40551;50.478;19.378;2023-01-10T04:02:13;16.80;;;11.70;;
53525;SDS011;40551;50.478;19.378;2023-01-10T04:04:41;14.60;;;11.00;;
53525;SDS011;40551;50.478;19.378;2023-01-10T04:07:10;13.80;;;8.90;;
53525;SDS011;40551;50.478;19.378;2023-01-10T04:09:38;10.90;;;8.40;;
53525;SDS011;40551;50.478;19.378;2023-01-10T04:12:06;13.40;;;10.20;;
53525;SDS011;40551;50.478;19.378;2023-01-10T04:14:34;14.90;;;11.20;;
53525;SDS011;40551;50.478;19.378;2023-01-10T04:17:03;16.40;;;12.30;;
53525;SDS011;40551;50.478;19.378;2023-01-10T04:19:31;16.40;;;14.60;;
53525;SDS011;40551;50.478;19.378;2023-01-10T04:22:00;15.90;;;13.30;;
53525;SDS011;40551;50.478;19.378;2023-01-10T04:24:28;15.40;;;13.60;;
53525;SDS011;40551;50.478;19.378;2023-01-10T04:26:56;17.20;;;14.00;;
53525;SDS011;40551;50.478;19.378;2023-01-10T04:29:24;17.00;;;14.80;;
53525;SDS011;40551;50.478;19.378;2023-01-10T04:31:53;18.60;;;16.10;;
53525;SDS011;40551;50.478;19.378;2023-01-10T04:34:21;19.20;;;16.90;;
53525;SDS011;40551;50.478;19.378;2023-01-10T04:36:49;18.10;;;14.80;;
53525;SDS011;40551;50.478;19.378;2023-01-10T04:39:18;17.00;;;12.80;;
53525;SDS011;40551;50.478;19.378;2023-01-10T04:41:46;20.80;;;14.20;;
53525;SDS011;40551;50.478;19.378;2023-01-10T04:44:14;14.40;;;11.70;;
53525;SDS011;40551;50.478;19.378;2023-01-10T04:46:42;17.10;;;12.30;;
53525;SDS011;40551;50.478;19.378;2023-01-10T04:49:11;16.70;;;12.20;;
53525;SDS011;40551;50.478;19.378;2023-01-10T04:51:40;14.60;;;11.00;;
53525;SDS011;40551;50.478;19.378;2023-01-10T04:54:08;17.40;;;12.10;;
53525;SDS011;40551;50.478;19.378;2023-01-10T04:56:36;16.30;;;11.80;;
53525;SDS011;40551;50.478;19.378;2023-01-10T04:59:04;13.90;;;11.90;;
53525;SDS011;40551;50.478;19.378;2023-01-10T05:01:32;16.20;;;12.80;;
53525;SDS011;40551;50.478;19.378;2023-01-10T05:04:04;27.40;;;18.80;;
53525;SDS011;40551;50.478;19.378;2023-01-10T05:06:32;31.90;;;22.30;;
53525;SDS011;40551;50.478;19.378;2023-01-10T05:09:01;28.40;;;19.20;;
53525;SDS011;40551;50.478;19.378;2023-01-10T05:11:29;23.20;;;15.10;;
53525;SDS011;40551;50.478;19.378;2023-01-10T05:13:57;48.30;;;43.50;;
53525;SDS011;40551;50.478;19.378;2023-01-10T05:16:25;84.70;;;75.10;;
53525;SDS011;40551;50.478;19.378;2023-01-10T05:18:54;119.00;;;101.70;;
53525;SDS011;40551;50.478;19.378;2023-01-10T05:21:22;130.00;;;89.70;;
53525;SDS011;40551;50.478;19.378;2023-01-10T05:23:50;198.90;;;119.30;;
53525;SDS011;40551;50.478;19.378;2023-01-10T05:26:20;116.80;;;86.80;;
53525;SDS011;40551;50.478;19.378;2023-01-10T05:28:49;93.60;;;71.40;;
53525;SDS011;40551;50.478;19.378;2023-01-10T05:31:18;49.60;;;44.90;;
53525;SDS011;40551;50.478;19.378;2023-01-10T05:33:47;51.70;;;47.20;;
53525;SDS011;40551;50.478;19.378;2023-01-10T05:36:17;76.20;;;41.20;;
53525;SDS011;40551;50.478;19.378;2023-01-10T05:38:45;89.20;;;46.30;;
53525;SDS011;40551;50.478;19.378;2023-01-10T05:41:14;177.10;;;77.00;;
53525;SDS011;40551;50.478;19.378;2023-01-10T05:43:42;173.30;;;99.90;;
53525;SDS011;40551;50.478;19.378;2023-01-10T05:46:10;47.80;;;43.10;;
53525;SDS011;40551;50.478;19.378;2023-01-10T05:48:38;64.30;;;58.30;;
53525;SDS011;40551;50.478;19.378;2023-01-10T05:51:06;54.50;;;38.30;;
53525;SDS011;40551;50.478;19.378;2023-01-10T05:53:35;91.30;;;58.50;;
53525;SDS011;40551;50.478;19.378;2023-01-10T05:56:03;41.70;;;37.40;;
53525;SDS011;40551;50.478;19.378;2023-01-10T05:58:33;60.10;;;54.50;;
53525;SDS011;40551;50.478;19.378;2023-01-10T06:01:02;52.50;;;47.60;;
53525;SDS011;40551;50.478;19.378;2023-01-10T06:03:30;45.30;;;41.10;;
53525;SDS011;40551;50.478;19.378;2023-01-10T06:05:58;46.00;;;41.10;;
53525;SDS011;40551;50.478;19.378;2023-01-10T06:08:26;49.20;;;44.30;;
53525;SDS011;40551;50.478;19.378;2023-01-10T06:10:55;47.50;;;42.90;;
53525;SDS011;40551;50.478;19.378;2023-01-10T06:13:23;71.40;;;45.30;;
53525;SDS011;40551;50.478;19.378;2023-01-10T06:15:51;174.50;;;58.40;;
53525;SDS011;40551;50.478;19.378;2023-01-10T06:18:20;80.00;;;44.20;;
53525;SDS011;40551;50.478;19.378;2023-01-10T06:20:48;41.80;;;37.80;;
53525;SDS011;40551;50.478;19.378;2023-01-10T06:23:16;34.90;;;31.40;;
53525;SDS011;40551;50.478;19.378;2023-01-10T06:25:44;41.00;;;36.20;;
53525;SDS011;40551;50.478;19.378;2023-01-10T06:28:13;48.60;;;38.80;;
53525;SDS011;40551;50.478;19.378;2023-01-10T06:30:41;40.20;;;35.10;;
53525;SDS011;40551;50.478;19.378;2023-01-10T06:33:10;47.60;;;36.60;;
53525;SDS011;40551;50.478;19.378;2023-01-10T06:35:38;40.10;;;36.20;;
53525;SDS011;40551;50.478;19.378;2023-01-10T06:38:07;35.50;;;32.10;;
53525;SDS011;40551;50.478;19.378;2023-01-10T06:40:35;36.50;;;33.00;;
53525;SDS011;40551;50.478;19.378;2023-01-10T06:43:03;40.50;;;36.80;;
53525;SDS011;40551;50.478;19.378;2023-01-10T06:45:32;53.50;;;42.80;;
53525;SDS011;40551;50.478;19.378;2023-01-10T06:48:00;53.60;;;44.00;;
53525;SDS011;40551;50.478;19.378;2023-01-10T06:50:28;44.90;;;40.00;;
53525;SDS011;40551;50.478;19.378;2023-01-10T06:52:57;41.00;;;37.00;;
53525;SDS011;40551;50.478;19.378;2023-01-10T06:55:27;36.80;;;33.20;;
53525;SDS011;40551;50.478;19.378;2023-01-10T06:57:57;36.90;;;33.40;;
53525;SDS011;40551;50.478;19.378;2023-01-10T07:00:27;37.00;;;33.50;;
53525;SDS011;40551;50.478;19.378;2023-01-10T07:02:57;40.10;;;35.30;;
53525;SDS011;40551;50.478;19.378;2023-01-10T07:05:26;44.40;;;39.10;;
53525;SDS011;40551;50.478;19.378;2023-01-10T07:07:54;55.90;;;50.20;;
53525;SDS011;40551;50.478;19.378;2023-01-10T07:10:24;39.20;;;35.20;;
53525;SDS011;40551;50.478;19.378;2023-01-10T07:12:53;39.80;;;36.00;;
53525;SDS011;40551;50.478;19.378;2023-01-10T07:15:21;37.10;;;33.70;;
53525;SDS011;40551;50.478;19.378;2023-01-10T07:17:50;36.30;;;32.60;;
53525;SDS011;40551;50.478;19.378;2023-01-10T07:20:18;34.00;;;30.50;;
53525;SDS011;40551;50.478;19.378;2023-01-10T07:22:52;39.70;;;36.00;;
53525;SDS011;40551;50.478;19.378;2023-01-10T07:25:21;37.20;;;33.80;;
53525;SDS011;40551;50.478;19.378;2023-01-10T07:27:49;40.20;;;36.40;;
53525;SDS011;40551;50.478;19.378;2023-01-10T07:30:17;36.30;;;32.90;;
53525;SDS011;40551;50.478;19.378;2023-01-10T07:32:46;39.20;;;35.20;;
53525;SDS011;40551;50.478;19.378;2023-01-10T07:35:19;35.80;;;32.40;;
53525;SDS011;40551;50.478;19.378;2023-01-10T07:37:48;38.20;;;34.50;;
53525;SDS011;40551;50.478;19.378;2023-01-10T07:40:17;35.80;;;32.40;;
53525;SDS011;40551;50.478;19.378;2023-01-10T07:42:45;37.80;;;34.20;;
53525;SDS011;40551;50.478;19.378;2023-01-10T07:45:14;39.00;;;35.10;;
53525;SDS011;40551;50.478;19.378;2023-01-10T07:47:42;38.30;;;34.60;;
53525;SDS011;40551;50.478;19.378;2023-01-10T07:50:10;37.00;;;33.40;;
53525;SDS011;40551;50.478;19.378;2023-01-10T07:52:39;34.70;;;31.30;;
53525;SDS011;40551;50.478;19.378;2023-01-10T07:55:08;36.30;;;32.60;;
53525;SDS011;40551;50.478;19.378;2023-01-10T07:57:36;35.40;;;31.90;;
53525;SDS011;40551;50.478;19.378;2023-01-10T08:00:05;33.70;;;30.40;;
53525;SDS011;40551;50.478;19.378;2023-01-10T08:02:35;32.50;;;29.30;;
53525;SDS011;40551;50.478;19.378;2023-01-10T08:05:04;33.40;;;30.00;;
53525;SDS011;40551;50.478;19.378;2023-01-10T08:07:33;35.00;;;31.40;;
53525;SDS011;40551;50.478;19.378;2023-01-10T08:10:01;29.40;;;26.30;;
53525;SDS011;40551;50.478;19.378;2023-01-10T08:12:30;29.20;;;26.20;;
53525;SDS011;40551;50.478;19.378;2023-01-10T08:14:58;28.40;;;25.30;;
53525;SDS011;40551;50.478;19.378;2023-01-10T08:17:27;25.80;;;23.20;;
53525;SDS011;40551;50.478;19.378;2023-01-10T08:19:55;26.80;;;23.10;;
53525;SDS011;40551;50.478;19.378;2023-01-10T08:22:23;26.10;;;23.30;;
53525;SDS011;40551;50.478;19.378;2023-01-10T08:24:51;25.00;;;22.20;;
53525;SDS011;40551;50.478;19.378;2023-01-10T08:27:19;24.80;;;21.50;;
53525;SDS011;40551;50.478;19.378;2023-01-10T08:29:48;21.10;;;18.90;;
53525;SDS011;40551;50.478;19.378;2023-01-10T08:32:16;21.60;;;18.80;;
53525;SDS011;40551;50.478;19.378;2023-01-10T08:34:44;19.80;;;16.60;;
53525;SDS011;40551;50.478;19.378;2023-01-10T08:37:12;19.10;;;15.90;;
53525;SDS011;40551;50.478;19.378;2023-01-10T08:39:41;22.00;;;16.10;;
53525;SDS011;40551;50.478;19.378;2023-01-10T08:42:09;20.90;;;14.90;;
53525;SDS011;40551;50.478;19.378;2023-01-10T08:44:37;18.10;;;14.20;;
53525;SDS011;40551;50.478;19.378;2023-01-10T08:47:05;17.70;;;15.00;;
53525;SDS011;40551;50.478;19.378;2023-01-10T08:49:34;19.90;;;16.10;;
53525;SDS011;40551;50.478;19.378;2023-01-10T08:52:02;21.10;;;15.50;;
53525;SDS011;40551;50.478;19.378;2023-01-10T08:54:30;17.80;;;14.10;;
53525;SDS011;40551;50.478;19.378;2023-01-10T08:56:59;16.90;;;13.50;;
53525;SDS011;40551;50.478;19.378;2023-01-10T08:59:27;18.50;;;13.10;;
53525;SDS011;40551;50.478;19.378;2023-01-10T09:01:55;18.00;;;14.20;;
53525;SDS011;40551;50.478;19.378;2023-01-10T09:04:25;15.50;;;13.40;;
53525;SDS011;40551;50.478;19.378;2023-01-10T09:06:58;14.10;;;10.90;;
53525;SDS011;40551;50.478;19.378;2023-01-10T09:09:26;13.10;;;9.70;;
53525;SDS011;40551;50.478;19.378;2023-01-10T09:11:54;14.40;;;9.60;;
53525;SDS011;40551;50.478;19.378;2023-01-10T09:14:23;20.50;;;14.20;;
53525;SDS011;40551;50.478;19.378;2023-01-10T09:16:51;14.70;;;10.80;;
53525;SDS011;40551;50.478;19.378;2023-01-10T09:19:19;13.40;;;9.90;;
53525;SDS011;40551;50.478;19.378;2023-01-10T09:21:48;14.50;;;10.50;;
53525;SDS011;40551;50.478;19.378;2023-01-10T09:24:16;16.40;;;11.00;;
53525;SDS011;40551;50.478;19.378;2023-01-10T09:26:45;17.60;;;12.60;;
53525;SDS011;40551;50.478;19.378;2023-01-10T09:29:13;19.40;;;14.40;;
53525;SDS011;40551;50.478;19.378;2023-01-10T09:31:42;21.40;;;14.90;;
53525;SDS011;40551;50.478;19.378;2023-01-10T09:34:10;25.50;;;19.00;;
53525;SDS011;40551;50.478;19.378;2023-01-10T09:36:38;30.50;;;22.90;;
53525;SDS011;40551;50.478;19.378;2023-01-10T09:39:06;29.10;;;23.40;;
53525;SDS011;40551;50.478;19.378;2023-01-10T09:41:52;29.30;;;24.60;;
53525;SDS011;40551;50.478;19.378;2023-01-10T09:44:34;34.60;;;30.90;;
53525;SDS011;40551;50.478;19.378;2023-01-10T09:47:11;35.80;;;32.00;;
53525;SDS011;40551;50.478;19.378;2023-01-10T09:49:51;35.70;;;32.10;;
53525;SDS011;40551;50.478;19.378;2023-01-10T09:52:29;36.30;;;32.60;;
53525;SDS011;40551;50.478;19.378;2023-01-10T09:55:03;37.60;;;33.70;;
53525;SDS011;40551;50.478;19.378;2023-01-10T09:57:43;38.60;;;34.70;;
53525;SDS011;40551;50.478;19.378;2023-01-10T10:00:15;39.90;;;35.60;;
53525;SDS011;40551;50.478;19.378;2023-01-10T10:02:47;36.20;;;32.40;;
53525;SDS011;40551;50.478;19.378;2023-01-10T10:05:20;36.40;;;32.80;;
53525;SDS011;40551;50.478;19.378;2023-01-10T10:07:51;36.10;;;32.20;;
53525;SDS011;40551;50.478;19.378;2023-01-10T10:10:22;35.20;;;31.80;;
53525;SDS011;40551;50.478;19.378;2023-01-10T10:12:56;34.10;;;30.70;;
53525;SDS011;40551;50.478;19.378;2023-01-10T10:15:41;36.60;;;32.90;;
53525;SDS011;40551;50.478;19.378;2023-01-10T10:18:19;35.60;;;32.10;;
53525;SDS011;40551;50.478;19.378;2023-01-10T10:21:00;38.40;;;34.80;;
53525;SDS011;40551;50.478;19.378;2023-01-10T10:23:41;36.50;;;32.80;;
53525;SDS011;40551;50.478;19.378;2023-01-10T10:26:23;36.30;;;32.60;;
53525;SDS011;40551;50.478;19.378;2023-01-10T10:29:10;36.30;;;32.70;;
53525;SDS011;40551;50.478;19.378;2023-01-10T10:32:00;37.50;;;33.90;;
53525;SDS011;40551;50.478;19.378;2023-01-10T10:34:43;36.80;;;33.20;;
53525;SDS011;40551;50.478;19.378;2023-01-10T10:37:16;36.50;;;32.80;;
53525;SDS011;40551;50.478;19.378;2023-01-10T10:39:48;36.90;;;33.40;;
53525;SDS011;40551;50.478;19.378;2023-01-10T10:42:20;38.10;;;32.40;;
53525;SDS011;40551;50.478;19.378;2023-01-10T10:44:55;36.00;;;32.40;;
53525;SDS011;40551;50.478;19.378;2023-01-10T10:47:30;39.00;;;35.10;;
53525;SDS011;40551;50.478;19.378;2023-01-10T10:50:03;35.80;;;32.20;;
53525;SDS011;40551;50.478;19.378;2023-01-10T10:52:43;36.60;;;29.80;;
53525;SDS011;40551;50.478;19.378;2023-01-10T10:55:12;36.10;;;31.10;;
53525;SDS011;40551;50.478;19.378;2023-01-10T10:57:42;34.10;;;30.80;;
53525;SDS011;40551;50.478;19.378;2023-01-10T11:00:26;31.50;;;28.20;;
53525;SDS011;40551;50.478;19.378;2023-01-10T11:02:56;32.30;;;29.00;;
53525;SDS011;40551;50.478;19.378;2023-01-10T11:05:31;35.70;;;32.10;;
53525;SDS011;40551;50.478;19.378;2023-01-10T11:08:04;38.70;;;34.90;;
53525;SDS011;40551;50.478;19.378;2023-01-10T11:10:36;38.00;;;34.10;;
53525;SDS011;40551;50.478;19.378;2023-01-10T11:13:07;35.60;;;32.00;;
53525;SDS011;40551;50.478;19.378;2023-01-10T11:15:44;33.80;;;30.50;;
53525;SDS011;40551;50.478;19.378;2023-01-10T11:18:14;35.10;;;31.50;;
53525;SDS011;40551;50.478;19.378;2023-01-10T11:20:47;35.80;;;32.10;;
53525;SDS011;40551;50.478;19.378;2023-01-10T11:23:27;32.30;;;29.20;;
53525;SDS011;40551;50.478;19.378;2023-01-10T11:26:04;31.00;;;27.70;;
53525;SDS011;40551;50.478;19.378;2023-01-10T11:28:34;30.40;;;27.40;;
53525;SDS011;40551;50.478;19.378;2023-01-10T11:31:04;33.10;;;29.60;;
53525;SDS011;40551;50.478;19.378;2023-01-10T11:33:33;33.30;;;29.90;;
53525;SDS011;40551;50.478;19.378;2023-01-10T11:36:03;33.60;;;30.20;;
53525;SDS011;40551;50.478;19.378;2023-01-10T11:38:34;31.80;;;28.50;;
53525;SDS011;40551;50.478;19.378;2023-01-10T11:41:02;29.70;;;26.60;;
53525;SDS011;40551;50.478;19.378;2023-01-10T11:43:33;31.90;;;28.60;;
53525;SDS011;40551;50.478;19.378;2023-01-10T11:46:03;30.70;;;27.50;;
53525;SDS011;40551;50.478;19.378;2023-01-10T11:48:40;30.70;;;27.60;;
53525;SDS011;40551;50.478;19.378;2023-01-10T11:51:31;28.80;;;25.80;;
53525;SDS011;40551;50.478;19.378;2023-01-10T11:54:03;34.00;;;30.70;;
53525;SDS011;40551;50.478;19.378;2023-01-10T11:56:34;33.60;;;30.40;;
53525;SDS011;40551;50.478;19.378;2023-01-10T11:59:09;33.10;;;29.70;;
53525;SDS011;40551;50.478;19.378;2023-01-10T12:01:41;36.60;;;33.00;;
53525;SDS011;40551;50.478;19.378;2023-01-10T12:04:15;35.00;;;31.40;;
53525;SDS011;40551;50.478;19.378;2023-01-10T12:06:44;43.70;;;39.40;;
53525;SDS011;40551;50.478;19.378;2023-01-10T12:09:34;39.60;;;35.60;;
53525;SDS011;40551;50.478;19.378;2023-01-10T12:12:18;33.70;;;30.30;;
53525;SDS011;40551;50.478;19.378;2023-01-10T12:14:48;33.50;;;30.30;;
53525;SDS011;40551;50.478;19.378;2023-01-10T12:17:20;29.90;;;26.80;;
53525;SDS011;40551;50.478;19.378;2023-01-10T12:19:51;32.60;;;29.30;;
53525;SDS011;40551;50.478;19.378;2023-01-10T12:22:22;31.70;;;28.60;;
53525;SDS011;40551;50.478;19.378;2023-01-10T12:24:56;32.90;;;29.90;;
53525;SDS011;40551;50.478;19.378;2023-01-10T12:27:26;32.70;;;29.70;;
53525;SDS011;40551;50.478;19.378;2023-01-10T12:29:58;35.50;;;32.00;;
53525;SDS011;40551;50.478;19.378;2023-01-10T12:32:32;32.00;;;28.90;;
53525;SDS011;40551;50.478;19.378;2023-01-10T12:35:05;29.90;;;27.00;;
53525;SDS011;40551;50.478;19.378;2023-01-10T12:37:40;28.60;;;25.60;;
53525;SDS011;40551;50.478;19.378;2023-01-10T12:40:15;26.60;;;23.90;;
53525;SDS011;40551;50.478;19.378;2023-01-10T12:42:51;39.10;;;35.30;;
53525;SDS011;40551;50.478;19.378;2023-01-10T12:45:41;36.00;;;32.20;;
53525;SDS011;40551;50.478;19.378;2023-01-10T12:48:14;32.50;;;29.10;;
53525;SDS011;40551;50.478;19.378;2023-01-10T12:50:49;37.20;;;33.50;;
53525;SDS011;40551;50.478;19.378;2023-01-10T12:53:23;49.80;;;45.20;;
53525;SDS011;40551;50.478;19.378;2023-01-10T12:55:57;42.60;;;38.60;;
53525;SDS011;40551;50.478;19.378;2023-01-10T12:58:33;41.20;;;37.10;;
53525;SDS011;40551;50.478;19.378;2023-01-10T13:01:06;39.20;;;35.30;;
53525;SDS011;40551;50.478;19.378;2023-01-10T13:03:36;35.40;;;32.00;;
53525;SDS011;40551;50.478;19.378;2023-01-10T13:06:05;47.90;;;43.20;;
53525;SDS011;40551;50.478;19.378;2023-01-10T13:08:34;47.00;;;42.50;;
53525;SDS011;40551;50.478;19.378;2023-01-10T13:11:05;39.30;;;35.40;;
53525;SDS011;40551;50.478;19.378;2023-01-10T13:13:39;53.60;;;43.90;;
53525;SDS011;40551;50.478;19.378;2023-01-10T13:16:15;33.10;;;28.50;;
53525;SDS011;40551;50.478;19.378;2023-01-10T13:19:00;38.60;;;34.60;;
53525;SDS011;40551;50.478;19.378;2023-01-10T13:21:31;42.60;;;38.70;;
53525;SDS011;40551;50.478;19.378;2023-01-10T13:24:01;42.00;;;37.80;;
53525;SDS011;40551;50.478;19.378;2023-01-10T13:26:45;44.10;;;39.30;;
53525;SDS011;40551;50.478;19.378;2023-01-10T13:29:19;33.70;;;27.90;;
53525;SDS011;40551;50.478;19.378;2023-01-10T13:31:49;32.20;;;28.70;;
53525;SDS011;40551;50.478;19.378;2023-01-10T13:34:23;44.90;;;40.70;;
53525;SDS011;40551;50.478;19.378;2023-01-10T13:36:58;40.00;;;30.90;;
53525;SDS011;40551;50.478;19.378;2023-01-10T13:39:30;39.50;;;25.00;;
53525;SDS011;40551;50.478;19.378;2023-01-10T13:42:21;45.50;;;32.50;;
53525;SDS011;40551;50.478;19.378;2023-01-10T13:45:14;33.90;;;30.40;;
53525;SDS011;40551;50.478;19.378;2023-01-10T13:48:22;40.40;;;35.30;;
53525;SDS011;40551;50.478;19.378;2023-01-10T13:53:55;29.50;;;26.40;;
53525;SDS011;40551;50.478;19.378;2023-01-10T13:56:29;29.10;;;26.10;;
53525;SDS011;40551;50.478;19.378;2023-01-10T13:58:59;47.40;;;42.70;;
53525;SDS011;40551;50.478;19.378;2023-01-10T14:01:51;27.30;;;24.50;;
53525;SDS011;40551;50.478;19.378;2023-01-10T14:04:43;31.60;;;28.30;;
53525;SDS011;40551;50.478;19.378;2023-01-10T14:07:17;29.80;;;26.90;;
53525;SDS011;40551;50.478;19.378;2023-01-10T14:09:50;26.50;;;23.10;;
53525;SDS011;40551;50.478;19.378;2023-01-10T14:12:24;28.30;;;25.50;;
53525;SDS011;40551;50.478;19.378;2023-01-10T14:14:57;30.50;;;27.20;;
53525;SDS011;40551;50.478;19.378;2023-01-10T14:17:29;31.90;;;28.90;;
53525;SDS011;40551;50.478;19.378;2023-01-10T14:20:03;28.80;;;25.80;;
53525;SDS011;40551;50.478;19.378;2023-01-10T14:22:40;37.60;;;33.30;;
53525;SDS011;40551;50.478;19.378;2023-01-10T14:25:23;30.90;;;27.60;;
53525;SDS011;40551;50.478;19.378;2023-01-10T14:27:54;23.20;;;20.50;;
53525;SDS011;40551;50.478;19.378;2023-01-10T14:30:26;23.80;;;21.20;;
53525;SDS011;40551;50.478;19.378;2023-01-10T14:32:59;25.30;;;22.60;;
53525;SDS011;40551;50.478;19.378;2023-01-10T14:35:35;22.30;;;20.10;;
53525;SDS011;40551;50.478;19.378;2023-01-10T14:38:07;23.40;;;21.10;;
53525;SDS011;40551;50.478;19.378;2023-01-10T14:40:44;22.70;;;20.30;;
53525;SDS011;40551;50.478;19.378;2023-01-10T14:43:15;28.90;;;21.90;;
53525;SDS011;40551;50.478;19.378;2023-01-10T14:45:48;26.40;;;23.10;;
53525;SDS011;40551;50.478;19.378;2023-01-10T14:48:23;49.40;;;33.80;;